KNRS/NRS METAR and TAF weather

Enter ICAO airport designator
Station Type Date Time Source
KNRS METAR 2020/02/20 17:56 UTC NOAA

KNRS 201756Z 30004KT 6SM BR FEW005 SCT250 15/12 A3012 RMK AO2 SLP198 T01500122 53008 $


Station Type Date Time Source
KNRS Decoded METAR 2020/02/20 17:56 UTC NOAA

IMPERIAL BEACH, NOLF, CA, United States (KNRS) 32-34N 117-07W 5M
Feb 20, 2020 - 12:56 PM EST / 2020.02.20 1756 UTC
Wind: from the WNW (300 degrees) at 5 MPH (4 KT):0
Visibility: 6 mile(s):0
Sky conditions: partly cloudy
Weather: mist
Temperature: 59.0 F (15.0 C)
Dew Point: 54.0 F (12.2 C)
Relative Humidity: 83%
Pressure (altimeter): 30.12 in. Hg (1019 hPa)
Pressure tendency: 0.02 inches (0.8 hPa) higher than three hours ago
ob: KNRS 201756Z 30004KT 6SM BR FEW005 SCT250 15/12 A3012 RMK AO2 SLP198 T01500122 53008
cycle: 18

Station Type Date Time Source
KNRS TAF UTC NOAA

Error!

Example: see airport list